sensor_id;sensor_type;location;lat;lon;timestamp;P1;durP1;ratioP1;P2;durP2;ratioP2
23362;SDS011;11853;48.080;11.960;2024-01-25T00:00:00;10.75;;;2.90;;
23362;SDS011;11853;48.080;11.960;2024-01-25T00:02:26;10.60;;;2.88;;
23362;SDS011;11853;48.080;11.960;2024-01-25T00:04:51;12.15;;;2.97;;
23362;SDS011;11853;48.080;11.960;2024-01-25T00:07:17;13.48;;;2.97;;
23362;SDS011;11853;48.080;11.960;2024-01-25T00:09:43;9.55;;;3.35;;
23362;SDS011;11853;48.080;11.960;2024-01-25T00:12:08;13.85;;;3.08;;
23362;SDS011;11853;48.080;11.960;2024-01-25T00:14:34;10.32;;;2.92;;
23362;SDS011;11853;48.080;11.960;2024-01-25T00:16:59;13.43;;;3.33;;
23362;SDS011;11853;48.080;11.960;2024-01-25T00:19:25;11.30;;;3.00;;
23362;SDS011;11853;48.080;11.960;2024-01-25T00:21:51;12.85;;;3.13;;
23362;SDS011;11853;48.080;11.960;2024-01-25T00:24:16;12.57;;;3.05;;
23362;SDS011;11853;48.080;11.960;2024-01-25T00:26:42;12.95;;;3.50;;
23362;SDS011;11853;48.080;11.960;2024-01-25T00:29:08;12.32;;;2.97;;
23362;SDS011;11853;48.080;11.960;2024-01-25T00:31:33;9.43;;;2.90;;
23362;SDS011;11853;48.080;11.960;2024-01-25T00:33:59;12.18;;;3.00;;
23362;SDS011;11853;48.080;11.960;2024-01-25T00:36:26;12.82;;;3.03;;
23362;SDS011;11853;48.080;11.960;2024-01-25T00:38:52;11.43;;;3.15;;
23362;SDS011;11853;48.080;11.960;2024-01-25T00:41:18;9.43;;;2.88;;
23362;SDS011;11853;48.080;11.960;2024-01-25T00:43:44;12.40;;;3.10;;
23362;SDS011;11853;48.080;11.960;2024-01-25T00:46:11;8.63;;;2.63;;
23362;SDS011;11853;48.080;11.960;2024-01-25T00:48:37;9.07;;;3.15;;
23362;SDS011;11853;48.080;11.960;2024-01-25T00:51:07;11.10;;;2.80;;
23362;SDS011;11853;48.080;11.960;2024-01-25T00:53:33;12.00;;;3.22;;
23362;SDS011;11853;48.080;11.960;2024-01-25T00:55:59;11.25;;;2.88;;
23362;SDS011;11853;48.080;11.960;2024-01-25T00:58:25;9.82;;;2.67;;
23362;SDS011;11853;48.080;11.960;2024-01-25T01:00:51;8.35;;;2.45;;
23362;SDS011;11853;48.080;11.960;2024-01-25T01:03:20;7.85;;;2.60;;
23362;SDS011;11853;48.080;11.960;2024-01-25T01:05:46;6.88;;;2.38;;
23362;SDS011;11853;48.080;11.960;2024-01-25T01:08:12;10.40;;;2.80;;
23362;SDS011;11853;48.080;11.960;2024-01-25T01:10:38;8.23;;;2.60;;
23362;SDS011;11853;48.080;11.960;2024-01-25T01:13:03;9.25;;;2.60;;
23362;SDS011;11853;48.080;11.960;2024-01-25T01:15:29;8.23;;;2.70;;
23362;SDS011;11853;48.080;11.960;2024-01-25T01:17:55;5.57;;;2.28;;
23362;SDS011;11853;48.080;11.960;2024-01-25T01:20:20;7.05;;;2.40;;
23362;SDS011;11853;48.080;11.960;2024-01-25T01:22:47;6.15;;;2.47;;
23362;SDS011;11853;48.080;11.960;2024-01-25T01:25:13;8.50;;;2.38;;
23362;SDS011;11853;48.080;11.960;2024-01-25T01:27:39;10.77;;;2.72;;
23362;SDS011;11853;48.080;11.960;2024-01-25T01:30:04;9.23;;;2.53;;
23362;SDS011;11853;48.080;11.960;2024-01-25T01:32:33;7.22;;;2.25;;
23362;SDS011;11853;48.080;11.960;2024-01-25T01:34:58;7.32;;;2.20;;
23362;SDS011;11853;48.080;11.960;2024-01-25T01:37:24;9.95;;;2.58;;
23362;SDS011;11853;48.080;11.960;2024-01-25T01:39:50;6.00;;;2.20;;
23362;SDS011;11853;48.080;11.960;2024-01-25T01:42:17;10.05;;;2.88;;
23362;SDS011;11853;48.080;11.960;2024-01-25T01:44:43;9.07;;;2.50;;
23362;SDS011;11853;48.080;11.960;2024-01-25T01:47:08;10.88;;;2.60;;
23362;SDS011;11853;48.080;11.960;2024-01-25T01:49:34;9.27;;;2.45;;
23362;SDS011;11853;48.080;11.960;2024-01-25T01:52:01;10.77;;;2.97;;
23362;SDS011;11853;48.080;11.960;2024-01-25T01:54:27;9.52;;;3.05;;
23362;SDS011;11853;48.080;11.960;2024-01-25T01:56:53;9.68;;;2.83;;
23362;SDS011;11853;48.080;11.960;2024-01-25T01:59:19;12.95;;;2.90;;
23362;SDS011;11853;48.080;11.960;2024-01-25T02:01:45;11.88;;;3.15;;
23362;SDS011;11853;48.080;11.960;2024-01-25T02:04:11;11.70;;;2.97;;
23362;SDS011;11853;48.080;11.960;2024-01-25T02:06:37;11.98;;;2.88;;
23362;SDS011;11853;48.080;11.960;2024-01-25T02:09:03;11.55;;;2.72;;
23362;SDS011;11853;48.080;11.960;2024-01-25T02:11:30;12.40;;;3.33;;
23362;SDS011;11853;48.080;11.960;2024-01-25T02:13:56;8.75;;;2.40;;
23362;SDS011;11853;48.080;11.960;2024-01-25T02:16:21;9.07;;;2.70;;
23362;SDS011;11853;48.080;11.960;2024-01-25T02:18:47;10.82;;;2.95;;
23362;SDS011;11853;48.080;11.960;2024-01-25T02:21:13;13.27;;;2.63;;
23362;SDS011;11853;48.080;11.960;2024-01-25T02:23:39;8.95;;;2.53;;
23362;SDS011;11853;48.080;11.960;2024-01-25T02:26:04;12.15;;;3.47;;
23362;SDS011;11853;48.080;11.960;2024-01-25T02:28:30;8.38;;;3.08;;
23362;SDS011;11853;48.080;11.960;2024-01-25T02:30:56;8.55;;;2.50;;
23362;SDS011;11853;48.080;11.960;2024-01-25T02:33:22;9.00;;;2.72;;
23362;SDS011;11853;48.080;11.960;2024-01-25T02:35:47;8.77;;;2.80;;
23362;SDS011;11853;48.080;11.960;2024-01-25T02:38:13;10.27;;;2.65;;
23362;SDS011;11853;48.080;11.960;2024-01-25T02:40:39;8.75;;;2.90;;
23362;SDS011;11853;48.080;11.960;2024-01-25T02:43:05;6.25;;;2.30;;
23362;SDS011;11853;48.080;11.960;2024-01-25T02:45:30;13.82;;;3.63;;
23362;SDS011;11853;48.080;11.960;2024-01-25T02:47:56;7.72;;;2.30;;
23362;SDS011;11853;48.080;11.960;2024-01-25T02:50:22;9.52;;;2.55;;
23362;SDS011;11853;48.080;11.960;2024-01-25T02:52:47;11.05;;;2.80;;
23362;SDS011;11853;48.080;11.960;2024-01-25T02:55:14;9.27;;;3.22;;
23362;SDS011;11853;48.080;11.960;2024-01-25T02:57:39;9.93;;;3.00;;
23362;SDS011;11853;48.080;11.960;2024-01-25T03:00:05;7.95;;;2.88;;
23362;SDS011;11853;48.080;11.960;2024-01-25T03:02:31;12.60;;;3.05;;
23362;SDS011;11853;48.080;11.960;2024-01-25T03:04:57;9.90;;;2.80;;
23362;SDS011;11853;48.080;11.960;2024-01-25T03:07:23;12.88;;;2.83;;
23362;SDS011;11853;48.080;11.960;2024-01-25T03:09:48;8.52;;;2.40;;
23362;SDS011;11853;48.080;11.960;2024-01-25T03:12:14;9.85;;;2.83;;
23362;SDS011;11853;48.080;11.960;2024-01-25T03:14:39;12.75;;;2.60;;
23362;SDS011;11853;48.080;11.960;2024-01-25T03:17:05;12.85;;;2.65;;
23362;SDS011;11853;48.080;11.960;2024-01-25T03:19:31;8.45;;;2.60;;
23362;SDS011;11853;48.080;11.960;2024-01-25T03:21:56;10.93;;;3.03;;
23362;SDS011;11853;48.080;11.960;2024-01-25T03:24:22;10.85;;;2.70;;
23362;SDS011;11853;48.080;11.960;2024-01-25T03:26:49;9.20;;;2.83;;
23362;SDS011;11853;48.080;11.960;2024-01-25T03:29:14;11.70;;;2.58;;
23362;SDS011;11853;48.080;11.960;2024-01-25T03:31:40;12.55;;;2.72;;
23362;SDS011;11853;48.080;11.960;2024-01-25T03:34:06;11.05;;;3.15;;
23362;SDS011;11853;48.080;11.960;2024-01-25T03:36:32;10.40;;;2.33;;
23362;SDS011;11853;48.080;11.960;2024-01-25T03:38:58;8.20;;;2.30;;
23362;SDS011;11853;48.080;11.960;2024-01-25T03:41:23;11.07;;;2.78;;
23362;SDS011;11853;48.080;11.960;2024-01-25T03:43:49;11.80;;;2.78;;
23362;SDS011;11853;48.080;11.960;2024-01-25T03:46:16;11.63;;;2.75;;
23362;SDS011;11853;48.080;11.960;2024-01-25T03:48:42;9.43;;;2.63;;
23362;SDS011;11853;48.080;11.960;2024-01-25T03:51:08;10.15;;;2.55;;
23362;SDS011;11853;48.080;11.960;2024-01-25T03:53:34;7.30;;;2.50;;
23362;SDS011;11853;48.080;11.960;2024-01-25T03:55:59;8.27;;;2.15;;
23362;SDS011;11853;48.080;11.960;2024-01-25T03:58:25;7.38;;;2.47;;
23362;SDS011;11853;48.080;11.960;2024-01-25T04:00:51;6.70;;;2.75;;
23362;SDS011;11853;48.080;11.960;2024-01-25T04:03:17;6.85;;;2.47;;
23362;SDS011;11853;48.080;11.960;2024-01-25T04:05:43;5.30;;;1.63;;
23362;SDS011;11853;48.080;11.960;2024-01-25T04:08:08;8.50;;;2.92;;
23362;SDS011;11853;48.080;11.960;2024-01-25T04:10:34;12.75;;;2.88;;
23362;SDS011;11853;48.080;11.960;2024-01-25T04:13:00;8.80;;;2.40;;
23362;SDS011;11853;48.080;11.960;2024-01-25T04:15:26;8.30;;;2.38;;
23362;SDS011;11853;48.080;11.960;2024-01-25T04:17:52;4.25;;;1.90;;
23362;SDS011;11853;48.080;11.960;2024-01-25T04:20:21;10.65;;;2.35;;
23362;SDS011;11853;48.080;11.960;2024-01-25T04:22:47;7.00;;;2.30;;
23362;SDS011;11853;48.080;11.960;2024-01-25T04:25:12;7.07;;;2.15;;
23362;SDS011;11853;48.080;11.960;2024-01-25T04:27:38;12.65;;;3.50;;
23362;SDS011;11853;48.080;11.960;2024-01-25T04:30:04;8.23;;;2.30;;
23362;SDS011;11853;48.080;11.960;2024-01-25T04:32:31;9.45;;;2.55;;
23362;SDS011;11853;48.080;11.960;2024-01-25T04:34:57;8.48;;;2.00;;
23362;SDS011;11853;48.080;11.960;2024-01-25T04:37:23;9.50;;;2.45;;
23362;SDS011;11853;48.080;11.960;2024-01-25T04:39:48;9.85;;;2.60;;
23362;SDS011;11853;48.080;11.960;2024-01-25T04:42:14;5.72;;;1.98;;
23362;SDS011;11853;48.080;11.960;2024-01-25T04:44:39;5.25;;;2.15;;
23362;SDS011;11853;48.080;11.960;2024-01-25T04:47:05;6.07;;;2.03;;
23362;SDS011;11853;48.080;11.960;2024-01-25T04:49:31;10.13;;;2.72;;
23362;SDS011;11853;48.080;11.960;2024-01-25T04:51:56;10.73;;;2.55;;
23362;SDS011;11853;48.080;11.960;2024-01-25T04:54:22;9.68;;;2.45;;
23362;SDS011;11853;48.080;11.960;2024-01-25T04:56:48;6.90;;;2.13;;
23362;SDS011;11853;48.080;11.960;2024-01-25T04:59:13;9.55;;;2.53;;
23362;SDS011;11853;48.080;11.960;2024-01-25T05:01:39;6.15;;;1.92;;
23362;SDS011;11853;48.080;11.960;2024-01-25T05:04:04;7.47;;;2.00;;
23362;SDS011;11853;48.080;11.960;2024-01-25T05:06:30;7.90;;;2.00;;
23362;SDS011;11853;48.080;11.960;2024-01-25T05:08:56;8.95;;;2.30;;
23362;SDS011;11853;48.080;11.960;2024-01-25T05:11:22;10.65;;;2.83;;
23362;SDS011;11853;48.080;11.960;2024-01-25T05:13:47;11.40;;;2.22;;
23362;SDS011;11853;48.080;11.960;2024-01-25T05:16:13;10.00;;;2.08;;
23362;SDS011;11853;48.080;11.960;2024-01-25T05:18:39;9.60;;;2.25;;
23362;SDS011;11853;48.080;11.960;2024-01-25T05:21:04;9.80;;;2.88;;
23362;SDS011;11853;48.080;11.960;2024-01-25T05:23:30;7.47;;;2.22;;
23362;SDS011;11853;48.080;11.960;2024-01-25T05:25:56;9.10;;;2.25;;
23362;SDS011;11853;48.080;11.960;2024-01-25T05:28:21;9.75;;;2.55;;
23362;SDS011;11853;48.080;11.960;2024-01-25T05:30:49;7.82;;;2.10;;
23362;SDS011;11853;48.080;11.960;2024-01-25T05:33:15;8.60;;;2.17;;
23362;SDS011;11853;48.080;11.960;2024-01-25T05:35:41;7.90;;;2.00;;
23362;SDS011;11853;48.080;11.960;2024-01-25T05:38:06;11.10;;;2.38;;
23362;SDS011;11853;48.080;11.960;2024-01-25T05:40:32;12.20;;;2.92;;
23362;SDS011;11853;48.080;11.960;2024-01-25T05:42:58;11.15;;;3.08;;
23362;SDS011;11853;48.080;11.960;2024-01-25T05:45:25;8.80;;;2.28;;
23362;SDS011;11853;48.080;11.960;2024-01-25T05:47:51;10.25;;;2.50;;
23362;SDS011;11853;48.080;11.960;2024-01-25T05:50:17;8.13;;;2.03;;
23362;SDS011;11853;48.080;11.960;2024-01-25T05:52:43;7.55;;;2.25;;
23362;SDS011;11853;48.080;11.960;2024-01-25T05:55:09;8.82;;;2.65;;
23362;SDS011;11853;48.080;11.960;2024-01-25T05:57:35;7.63;;;2.55;;
23362;SDS011;11853;48.080;11.960;2024-01-25T06:00:01;10.38;;;2.55;;
23362;SDS011;11853;48.080;11.960;2024-01-25T06:02:28;12.70;;;3.22;;
23362;SDS011;11853;48.080;11.960;2024-01-25T06:04:54;9.90;;;2.22;;
23362;SDS011;11853;48.080;11.960;2024-01-25T06:07:23;10.25;;;2.85;;
23362;SDS011;11853;48.080;11.960;2024-01-25T06:09:49;9.10;;;2.45;;
23362;SDS011;11853;48.080;11.960;2024-01-25T06:12:14;12.05;;;3.00;;
23362;SDS011;11853;48.080;11.960;2024-01-25T06:14:40;11.10;;;2.58;;
23362;SDS011;11853;48.080;11.960;2024-01-25T06:17:06;12.00;;;3.30;;
23362;SDS011;11853;48.080;11.960;2024-01-25T06:19:31;12.20;;;2.80;;
23362;SDS011;11853;48.080;11.960;2024-01-25T06:21:58;12.23;;;2.42;;
23362;SDS011;11853;48.080;11.960;2024-01-25T06:24:24;9.10;;;2.53;;
23362;SDS011;11853;48.080;11.960;2024-01-25T06:26:49;9.80;;;2.55;;
23362;SDS011;11853;48.080;11.960;2024-01-25T06:29:15;12.25;;;2.75;;
23362;SDS011;11853;48.080;11.960;2024-01-25T06:31:44;9.23;;;2.45;;
23362;SDS011;11853;48.080;11.960;2024-01-25T06:34:10;9.70;;;2.70;;
23362;SDS011;11853;48.080;11.960;2024-01-25T06:36:36;9.90;;;2.88;;
23362;SDS011;11853;48.080;11.960;2024-01-25T06:39:01;9.35;;;2.72;;
23362;SDS011;11853;48.080;11.960;2024-01-25T06:41:29;12.55;;;3.00;;
23362;SDS011;11853;48.080;11.960;2024-01-25T06:43:55;11.80;;;3.05;;
23362;SDS011;11853;48.080;11.960;2024-01-25T06:46:21;10.23;;;3.05;;
23362;SDS011;11853;48.080;11.960;2024-01-25T06:48:47;11.45;;;2.20;;
23362;SDS011;11853;48.080;11.960;2024-01-25T06:51:12;10.15;;;3.22;;
23362;SDS011;11853;48.080;11.960;2024-01-25T06:53:39;11.55;;;2.90;;
23362;SDS011;11853;48.080;11.960;2024-01-25T06:56:05;11.77;;;2.80;;
23362;SDS011;11853;48.080;11.960;2024-01-25T06:58:31;10.85;;;3.33;;
23362;SDS011;11853;48.080;11.960;2024-01-25T07:00:57;10.25;;;2.80;;
23362;SDS011;11853;48.080;11.960;2024-01-25T07:03:23;13.40;;;2.95;;
23362;SDS011;11853;48.080;11.960;2024-01-25T07:05:49;9.55;;;2.45;;
23362;SDS011;11853;48.080;11.960;2024-01-25T07:08:14;11.85;;;3.33;;
23362;SDS011;11853;48.080;11.960;2024-01-25T07:10:41;16.33;;;3.10;;
23362;SDS011;11853;48.080;11.960;2024-01-25T07:13:07;9.70;;;2.78;;
23362;SDS011;11853;48.080;11.960;2024-01-25T07:15:33;10.98;;;3.10;;
23362;SDS011;11853;48.080;11.960;2024-01-25T07:17:59;11.80;;;2.90;;
23362;SDS011;11853;48.080;11.960;2024-01-25T07:20:24;11.35;;;2.92;;
23362;SDS011;11853;48.080;11.960;2024-01-25T07:22:50;13.50;;;3.50;;
23362;SDS011;11853;48.080;11.960;2024-01-25T07:25:16;14.90;;;2.97;;
23362;SDS011;11853;48.080;11.960;2024-01-25T07:27:45;11.63;;;2.95;;
23362;SDS011;11853;48.080;11.960;2024-01-25T07:30:12;9.07;;;2.88;;
23362;SDS011;11853;48.080;11.960;2024-01-25T07:32:38;12.50;;;2.67;;
23362;SDS011;11853;48.080;11.960;2024-01-25T07:35:06;7.18;;;2.30;;
23362;SDS011;11853;48.080;11.960;2024-01-25T07:37:32;9.32;;;2.67;;
23362;SDS011;11853;48.080;11.960;2024-01-25T07:39:58;13.10;;;3.63;;
23362;SDS011;11853;48.080;11.960;2024-01-25T07:42:23;9.07;;;3.15;;
23362;SDS011;11853;48.080;11.960;2024-01-25T07:44:49;11.05;;;3.10;;
23362;SDS011;11853;48.080;11.960;2024-01-25T07:47:14;9.65;;;3.13;;
23362;SDS011;11853;48.080;11.960;2024-01-25T07:49:40;9.45;;;3.22;;
23362;SDS011;11853;48.080;11.960;2024-01-25T07:52:06;13.70;;;3.15;;
23362;SDS011;11853;48.080;11.960;2024-01-25T07:54:32;12.43;;;3.05;;
23362;SDS011;11853;48.080;11.960;2024-01-25T07:56:57;13.13;;;3.22;;
23362;SDS011;11853;48.080;11.960;2024-01-25T07:59:23;11.00;;;2.58;;
23362;SDS011;11853;48.080;11.960;2024-01-25T08:01:49;14.68;;;3.42;;
23362;SDS011;11853;48.080;11.960;2024-01-25T08:04:14;11.27;;;3.38;;
23362;SDS011;11853;48.080;11.960;2024-01-25T08:06:40;11.88;;;2.90;;
23362;SDS011;11853;48.080;11.960;2024-01-25T08:09:06;12.07;;;3.00;;
23362;SDS011;11853;48.080;11.960;2024-01-25T08:11:33;9.95;;;2.90;;
23362;SDS011;11853;48.080;11.960;2024-01-25T08:13:59;12.15;;;3.30;;
23362;SDS011;11853;48.080;11.960;2024-01-25T08:16:25;12.38;;;3.65;;
23362;SDS011;11853;48.080;11.960;2024-01-25T08:18:51;12.05;;;2.88;;
23362;SDS011;11853;48.080;11.960;2024-01-25T08:21:17;13.23;;;4.30;;
23362;SDS011;11853;48.080;11.960;2024-01-25T08:23:43;9.10;;;2.75;;
23362;SDS011;11853;48.080;11.960;2024-01-25T08:26:08;9.98;;;3.22;;
23362;SDS011;11853;48.080;11.960;2024-01-25T08:28:43;12.30;;;3.22;;
23362;SDS011;11853;48.080;11.960;2024-01-25T08:31:09;11.25;;;3.53;;
23362;SDS011;11853;48.080;11.960;2024-01-25T08:33:35;7.78;;;3.22;;
23362;SDS011;11853;48.080;11.960;2024-01-25T08:36:01;13.85;;;3.60;;
23362;SDS011;11853;48.080;11.960;2024-01-25T08:38:27;9.93;;;3.28;;
23362;SDS011;11853;48.080;11.960;2024-01-25T08:40:53;8.93;;;3.05;;
23362;SDS011;11853;48.080;11.960;2024-01-25T08:43:19;12.23;;;3.60;;
23362;SDS011;11853;48.080;11.960;2024-01-25T08:45:45;12.50;;;3.35;;
23362;SDS011;11853;48.080;11.960;2024-01-25T08:48:11;9.45;;;2.80;;
23362;SDS011;11853;48.080;11.960;2024-01-25T08:50:38;10.40;;;3.70;;
23362;SDS011;11853;48.080;11.960;2024-01-25T08:53:04;9.35;;;3.47;;
23362;SDS011;11853;48.080;11.960;2024-01-25T08:55:30;9.73;;;3.35;;
23362;SDS011;11853;48.080;11.960;2024-01-25T08:57:56;8.95;;;2.92;;
23362;SDS011;11853;48.080;11.960;2024-01-25T09:00:22;10.65;;;3.20;;
23362;SDS011;11853;48.080;11.960;2024-01-25T09:02:48;9.18;;;3.55;;
23362;SDS011;11853;48.080;11.960;2024-01-25T09:05:14;8.85;;;3.00;;
23362;SDS011;11853;48.080;11.960;2024-01-25T09:07:39;13.73;;;4.25;;
23362;SDS011;11853;48.080;11.960;2024-01-25T09:10:07;16.73;;;4.45;;
23362;SDS011;11853;48.080;11.960;2024-01-25T09:12:36;11.20;;;3.88;;
23362;SDS011;11853;48.080;11.960;2024-01-25T09:15:03;9.55;;;4.00;;
23362;SDS011;11853;48.080;11.960;2024-01-25T09:17:29;13.65;;;3.72;;
23362;SDS011;11853;48.080;11.960;2024-01-25T09:19:54;16.25;;;4.97;;
23362;SDS011;11853;48.080;11.960;2024-01-25T09:22:24;15.18;;;4.38;;
23362;SDS011;11853;48.080;11.960;2024-01-25T09:24:49;15.68;;;5.82;;
23362;SDS011;11853;48.080;11.960;2024-01-25T09:27:15;13.23;;;4.28;;
23362;SDS011;11853;48.080;11.960;2024-01-25T09:29:41;8.82;;;3.72;;
23362;SDS011;11853;48.080;11.960;2024-01-25T09:32:07;11.20;;;3.30;;
23362;SDS011;11853;48.080;11.960;2024-01-25T09:34:34;14.43;;;4.07;;
23362;SDS011;11853;48.080;11.960;2024-01-25T09:37:00;10.52;;;3.60;;
23362;SDS011;11853;48.080;11.960;2024-01-25T09:39:26;9.57;;;3.55;;
23362;SDS011;11853;48.080;11.960;2024-01-25T09:41:52;9.15;;;3.72;;
23362;SDS011;11853;48.080;11.960;2024-01-25T09:44:18;11.88;;;3.85;;
23362;SDS011;11853;48.080;11.960;2024-01-25T09:46:44;11.10;;;3.88;;
23362;SDS011;11853;48.080;11.960;2024-01-25T09:49:13;10.43;;;3.35;;
23362;SDS011;11853;48.080;11.960;2024-01-25T09:51:40;9.32;;;3.00;;
23362;SDS011;11853;48.080;11.960;2024-01-25T09:54:07;9.07;;;3.70;;
23362;SDS011;11853;48.080;11.960;2024-01-25T09:56:33;8.18;;;3.15;;
23362;SDS011;11853;48.080;11.960;2024-01-25T09:59:00;14.77;;;3.90;;
23362;SDS011;11853;48.080;11.960;2024-01-25T10:01:26;10.27;;;3.15;;
23362;SDS011;11853;48.080;11.960;2024-01-25T10:03:52;10.25;;;3.30;;
23362;SDS011;11853;48.080;11.960;2024-01-25T10:06:21;7.68;;;3.10;;
23362;SDS011;11853;48.080;11.960;2024-01-25T10:08:48;10.05;;;3.42;;
23362;SDS011;11853;48.080;11.960;2024-01-25T10:11:14;11.93;;;3.70;;
23362;SDS011;11853;48.080;11.960;2024-01-25T10:13:43;14.85;;;4.03;;
23362;SDS011;11853;48.080;11.960;2024-01-25T10:16:11;13.52;;;3.50;;
23362;SDS011;11853;48.080;11.960;2024-01-25T10:18:40;13.07;;;3.80;;
23362;SDS011;11853;48.080;11.960;2024-01-25T10:21:09;10.95;;;3.10;;
23362;SDS011;11853;48.080;11.960;2024-01-25T10:23:35;14.55;;;4.22;;
23362;SDS011;11853;48.080;11.960;2024-01-25T10:26:02;15.85;;;3.92;;
23362;SDS011;11853;48.080;11.960;2024-01-25T10:28:28;13.35;;;3.60;;
23362;SDS011;11853;48.080;11.960;2024-01-25T10:30:56;14.52;;;4.80;;
23362;SDS011;11853;48.080;11.960;2024-01-25T10:33:26;9.38;;;3.70;;
23362;SDS011;11853;48.080;11.960;2024-01-25T10:35:55;14.93;;;4.28;;
23362;SDS011;11853;48.080;11.960;2024-01-25T10:38:32;9.18;;;3.92;;
23362;SDS011;11853;48.080;11.960;2024-01-25T10:41:01;11.77;;;3.78;;
23362;SDS011;11853;48.080;11.960;2024-01-25T10:43:29;16.02;;;4.28;;
23362;SDS011;11853;48.080;11.960;2024-01-25T10:45:58;14.40;;;4.10;;
23362;SDS011;11853;48.080;11.960;2024-01-25T10:48:25;11.00;;;3.92;;
23362;SDS011;11853;48.080;11.960;2024-01-25T10:50:52;9.73;;;4.00;;
23362;SDS011;11853;48.080;11.960;2024-01-25T10:53:18;8.35;;;3.40;;
23362;SDS011;11853;48.080;11.960;2024-01-25T10:55:46;9.80;;;3.58;;
23362;SDS011;11853;48.080;11.960;2024-01-25T10:58:15;11.32;;;3.90;;
23362;SDS011;11853;48.080;11.960;2024-01-25T11:00:41;9.48;;;2.95;;
23362;SDS011;11853;48.080;11.960;2024-01-25T11:03:17;9.18;;;2.90;;
23362;SDS011;11853;48.080;11.960;2024-01-25T11:05:43;10.23;;;3.60;;
23362;SDS011;11853;48.080;11.960;2024-01-25T11:08:17;11.25;;;3.83;;
23362;SDS011;11853;48.080;11.960;2024-01-25T11:10:46;7.93;;;2.80;;
23362;SDS011;11853;48.080;11.960;2024-01-25T11:13:15;7.07;;;3.08;;
23362;SDS011;11853;48.080;11.960;2024-01-25T11:15:41;8.38;;;3.20;;
23362;SDS011;11853;48.080;11.960;2024-01-25T11:18:07;11.18;;;3.70;;
23362;SDS011;11853;48.080;11.960;2024-01-25T11:20:34;7.47;;;2.80;;
23362;SDS011;11853;48.080;11.960;2024-01-25T11:23:02;10.45;;;3.33;;
23362;SDS011;11853;48.080;11.960;2024-01-25T11:25:36;10.73;;;4.22;;
23362;SDS011;11853;48.080;11.960;2024-01-25T11:28:03;9.55;;;2.90;;
23362;SDS011;11853;48.080;11.960;2024-01-25T11:30:32;8.07;;;3.30;;
23362;SDS011;11853;48.080;11.960;2024-01-25T11:32:58;12.02;;;4.03;;
23362;SDS011;11853;48.080;11.960;2024-01-25T11:35:24;11.93;;;4.07;;
23362;SDS011;11853;48.080;11.960;2024-01-25T11:37:50;12.07;;;4.28;;
23362;SDS011;11853;48.080;11.960;2024-01-25T11:40:17;9.50;;;3.35;;
23362;SDS011;11853;48.080;11.960;2024-01-25T11:42:44;11.13;;;3.60;;
23362;SDS011;11853;48.080;11.960;2024-01-25T11:45:13;10.45;;;2.75;;
23362;SDS011;11853;48.080;11.960;2024-01-25T11:47:42;10.25;;;3.03;;
23362;SDS011;11853;48.080;11.960;2024-01-25T11:50:09;9.25;;;3.63;;
23362;SDS011;11853;48.080;11.960;2024-01-25T11:52:37;9.05;;;3.85;;
23362;SDS011;11853;48.080;11.960;2024-01-25T11:55:04;11.68;;;3.58;;
23362;SDS011;11853;48.080;11.960;2024-01-25T11:57:32;9.30;;;2.92;;
23362;SDS011;11853;48.080;11.960;2024-01-25T12:00:01;9.40;;;2.53;;
23362;SDS011;11853;48.080;11.960;2024-01-25T12:02:29;13.27;;;3.67;;
23362;SDS011;11853;48.080;11.960;2024-01-25T12:04:56;9.10;;;3.03;;
23362;SDS011;11853;48.080;11.960;2024-01-25T12:07:23;9.32;;;3.22;;
23362;SDS011;11853;48.080;11.960;2024-01-25T12:09:58;7.50;;;3.10;;
23362;SDS011;11853;48.080;11.960;2024-01-25T12:12:25;10.98;;;3.35;;
23362;SDS011;11853;48.080;11.960;2024-01-25T12:14:56;9.23;;;2.63;;
23362;SDS011;11853;48.080;11.960;2024-01-25T12:17:28;9.77;;;3.20;;
23362;SDS011;11853;48.080;11.960;2024-01-25T12:19:58;10.40;;;3.33;;
23362;SDS011;11853;48.080;11.960;2024-01-25T12:22:28;10.07;;;3.00;;
23362;SDS011;11853;48.080;11.960;2024-01-25T12:24:55;6.65;;;2.47;;
23362;SDS011;11853;48.080;11.960;2024-01-25T12:27:21;7.85;;;3.30;;
23362;SDS011;11853;48.080;11.960;2024-01-25T12:29:48;10.00;;;3.13;;
23362;SDS011;11853;48.080;11.960;2024-01-25T12:32:16;8.40;;;2.90;;
23362;SDS011;11853;48.080;11.960;2024-01-25T12:34:42;9.63;;;3.20;;
23362;SDS011;11853;48.080;11.960;2024-01-25T12:37:09;9.98;;;3.58;;
23362;SDS011;11853;48.080;11.960;2024-01-25T12:39:34;8.60;;;3.00;;
23362;SDS011;11853;48.080;11.960;2024-01-25T12:42:00;8.93;;;2.70;;
23362;SDS011;11853;48.080;11.960;2024-01-25T12:44:26;9.18;;;2.70;;
23362;SDS011;11853;48.080;11.960;2024-01-25T12:46:52;9.27;;;2.90;;
23362;SDS011;11853;48.080;11.960;2024-01-25T12:49:18;10.27;;;3.08;;
23362;SDS011;11853;48.080;11.960;2024-01-25T12:51:46;10.68;;;3.08;;
23362;SDS011;11853;48.080;11.960;2024-01-25T12:54:12;8.25;;;2.95;;
23362;SDS011;11853;48.080;11.960;2024-01-25T12:56:38;11.25;;;2.80;;
23362;SDS011;11853;48.080;11.960;2024-01-25T12:59:04;10.23;;;2.90;;
23362;SDS011;11853;48.080;11.960;2024-01-25T13:01:30;9.43;;;2.88;;
23362;SDS011;11853;48.080;11.960;2024-01-25T13:03:56;9.80;;;3.10;;
23362;SDS011;11853;48.080;11.960;2024-01-25T13:06:22;7.18;;;2.58;;
23362;SDS011;11853;48.080;11.960;2024-01-25T13:08:47;10.57;;;4.07;;
23362;SDS011;11853;48.080;11.960;2024-01-25T13:11:14;9.57;;;2.58;;
23362;SDS011;11853;48.080;11.960;2024-01-25T13:13:39;11.85;;;2.92;;
23362;SDS011;11853;48.080;11.960;2024-01-25T13:16:05;9.50;;;2.80;;
23362;SDS011;11853;48.080;11.960;2024-01-25T13:18:31;7.80;;;2.47;;
23362;SDS011;11853;48.080;11.960;2024-01-25T13:20:57;10.02;;;3.05;;
23362;SDS011;11853;48.080;11.960;2024-01-25T13:23:23;6.35;;;2.83;;
23362;SDS011;11853;48.080;11.960;2024-01-25T13:25:48;7.07;;;2.72;;
23362;SDS011;11853;48.080;11.960;2024-01-25T13:28:14;9.27;;;3.17;;
23362;SDS011;11853;48.080;11.960;2024-01-25T13:30:40;5.90;;;2.30;;
23362;SDS011;11853;48.080;11.960;2024-01-25T13:33:05;4.90;;;1.90;;
23362;SDS011;11853;48.080;11.960;2024-01-25T13:35:31;6.15;;;2.20;;
23362;SDS011;11853;48.080;11.960;2024-01-25T13:37:57;6.93;;;2.53;;
23362;SDS011;11853;48.080;11.960;2024-01-25T13:40:26;8.57;;;2.60;;
23362;SDS011;11853;48.080;11.960;2024-01-25T13:42:52;9.00;;;2.80;;
23362;SDS011;11853;48.080;11.960;2024-01-25T13:45:19;10.38;;;3.00;;
23362;SDS011;11853;48.080;11.960;2024-01-25T13:47:45;10.27;;;2.95;;
23362;SDS011;11853;48.080;11.960;2024-01-25T13:50:11;6.82;;;2.58;;
23362;SDS011;11853;48.080;11.960;2024-01-25T13:52:37;8.82;;;3.28;;
23362;SDS011;11853;48.080;11.960;2024-01-25T13:55:03;10.43;;;3.65;;
23362;SDS011;11853;48.080;11.960;2024-01-25T13:57:29;8.98;;;3.65;;
23362;SDS011;11853;48.080;11.960;2024-01-25T13:59:55;6.85;;;3.00;;
23362;SDS011;11853;48.080;11.960;2024-01-25T14:02:20;8.50;;;3.05;;
23362;SDS011;11853;48.080;11.960;2024-01-25T14:04:46;8.30;;;3.08;;
23362;SDS011;11853;48.080;11.960;2024-01-25T14:07:13;6.95;;;2.78;;
23362;SDS011;11853;48.080;11.960;2024-01-25T14:09:42;8.88;;;2.97;;
23362;SDS011;11853;48.080;11.960;2024-01-25T14:12:07;13.55;;;4.07;;
23362;SDS011;11853;48.080;11.960;2024-01-25T14:14:33;9.75;;;4.07;;
23362;SDS011;11853;48.080;11.960;2024-01-25T14:16:59;9.98;;;3.92;;
23362;SDS011;11853;48.080;11.960;2024-01-25T14:19:24;10.55;;;2.70;;
23362;SDS011;11853;48.080;11.960;2024-01-25T14:21:50;9.77;;;2.80;;